Tiempo atmosférico en la estación meteorológica de Valderredible, Cubillo de Ebro, Cantabria (765 m.)



Fecha
DESCASC
Temp. máxima en grados centígrados (hora)
DESCASC
Temp. mínima en grados centígrados (hora)
DESCASC
Temp. media en grados centígrados
DESCASC
Racha de viento máxima en m/sg (hora)
DESCASC
Velocidad máxima media en intervalos de 10 minutos(hora)
DESCASC
Precipitaciones diarias en mm
DESCASC
Precipitaciones de 00:00 a 06:00 en mm
DESCASC
Precipitaciones de 06:00 a 12:00 en mm
DESCASC
Precipitaciones de 12:00 a 18:00 en mm
DESCASC
Precipitaciones de 18:00 a 24:00 en mm
DESCASC
23-06-2019 26.6 (13:50) 8.8 (07:00) 17.7 13.33 (14:00) 5 (14:00) 0 0 0 0 0
22-06-2019 28.6 (17:40) 8.2 (07:30) 18.4 8.33 (13:20) 3.61 (17:40) 0 0 0 0 0
21-06-2019 18.7 (20:00) 10.7 (23:59) 14.7 8.06 (16:30) 4.44 (02:30) 3 3 0 0 0
20-06-2019 18.9 (15:50) 12.1 (00:00) 15.5 9.72 (18:00) 5.28 (18:30) 2 0 0 0 2
19-06-2019 -- (--) -- (--) -- -- (--) -- (--) -- -- -- -- 0
18-06-2019 27.9 (16:40) 6.6 (00:00) 17.2 15.83 (18:50) 7.78 (17:10) 0 0 0 0 0
17-06-2019 29.1 (16:40) 7.4 (00:00) 18.3 10.28 (16:00) 4.44 (16:20) 0 0 0 0 0
16-06-2019 28.2 (18:00) 1.7 (00:00) 15 7.78 (19:40) 4.44 (17:20) 0 0 0 0 0
15-06-2019 22 (17:00) 7.1 (00:00) 14.5 9.44 (19:10) 5.28 (19:00) 0 0 0 0 0
14-06-2019 19.9 (13:30) 6.3 (00:00) 13.1 10 (17:30) 6.11 (17:50) 0 0 0 0 0
13-06-2019 23.8 (16:00) 8 (00:00) 15.9 10.28 (18:40) 5.28 (20:00) 0 0 0 0 0
12-06-2019 18.3 (15:50) -0.6 (-00:0) 8.8 8.89 (18:20) 5 (18:20) 0 0 0 0 0
11-06-2019 13.2 (17:30) 5 (00:00) 9.1 11.67 (16:20) 6.11 (17:50) 1.2 1 0.2 0 0
10-06-2019 14.6 (15:00) 6.9 (00:00) 10.8 8.61 (00:20) 4.17 (17:40) 1.8 0 0 0 1.8
09-06-2019 16.6 (14:30) 9 (00:00) 12.8 10.28 (20:00) 5.28 (16:40) 1 0 0 0 1
08-06-2019 21.9 (16:40) 2.7 (00:00) 12.3 10 (17:10) 5.28 (17:20) 0 0 0 0 0
07-06-2019 17.3 (15:30) 5.7 (00:00) 11.5 15 (07:20) 7.22 (07:10) 0.8 0.8 0 0 0
06-06-2019 20.5 (18:30) 4.7 (00:00) 12.6 15.83 (23:20) 7.78 (23:20) 5 0 0 0 5
05-06-2019 13 (13:00) 6.7 (00:00) 9.8 9.72 (16:30) 5 (16:40) 18.2 10.6 2.8 3.2 1.6
04-06-2019 23.6 (15:40) 8.1 (00:00) 15.9 10.83 (19:20) 6.11 (19:20) 1.8 0 0 0 1.8
03-06-2019 29.9 (18:40) 7.2 (00:00) 18.5 10.28 (17:50) 5 (17:50) 0 0 0 0 0
02-06-2019 30.7 (14:40) 8.8 (00:00) 19.8 12.78 (15:20) 6.11 (17:10) 0 0 0 0 0
01-06-2019 32.8 (17:40) 5.3 (00:00) 19 8.61 (14:40) 5 (18:40) 0 0 0 0 0
31-05-2019 30.2 (17:00) 3.8 (00:00) 17 6.67 (19:40) 3.89 (19:50) 0 0 0 0 0
30-05-2019 26.8 (17:40) 2.3 (00:00) 14.5 9.72 (15:20) 5.28 (15:20) 0 0 0 0 0
29-05-2019 20 (17:10) 5.3 (00:00) 12.7 9.17 (15:40) 4.17 (09:00) 0 0 0 0 0
28-05-2019 14.8 (13:10) 7.8 (00:00) 11.3 14.17 (12:20) 6.11 (15:30) 0 0 0 0 0

Gráficas

Temp. máximas Temp. mínimas Temp. medias Precipitaciones Rachas de viento máximas Velocidades máximas media en intervalos de 10 minutos

Datos horarios

Fecha y hora oficial Temperatura (ºC) Velocidad del viento (km/h) Dirección del viento Racha (km/h) Dirección de racha Precipitación (mm) Presión (hPa) Tendencia (hPa) Humedad (%)
2019-06-26 23:00:00 19.6 9 Noroeste 30 Noroeste 0 -- -- 84
2019-06-26 22:00:00 21.8 20 Norte 36 Norte 0 -- -- 80
2019-06-26 21:00:00 29 14 Noroeste 30 Norte 0 -- -- 55
2019-06-26 20:00:00 32.8 10 Este 24 Este 0 -- -- 36
2019-06-26 19:00:00 32.9 11 Este 27 Este 0 -- -- 36
2019-06-26 18:00:00 34 15 Este 24 Este 0 -- -- 33
2019-06-26 17:00:00 33.8 12 Sudeste 28 Este 0 -- -- 31
2019-06-26 16:00:00 33.6 8 Sudeste 25 Sudeste 0 -- -- 34
2019-06-26 15:00:00 32.4 12 Sudoeste 36 Sur 0 -- -- 35
2019-06-26 14:00:00 32 11 Sudoeste 35 Sur 0 -- -- 35
2019-06-26 13:00:00 30.8 12 Sur 37 Sudeste 0 -- -- 36
2019-06-26 12:00:00 29.2 13 Sur 30 Sur 0 -- -- 41
2019-06-26 11:00:00 24.7 3 Sudoeste 6 Sudoeste 0 -- -- 66
2019-06-26 10:00:00 20.9 3 Oeste 7 Oeste 0 -- -- 76
2019-06-26 09:00:00 16.9 4 Sudoeste 8 Oeste 0 -- -- 94
2019-06-26 08:00:00 14.8 4 Noroeste 9 Noroeste 0 -- -- 96
2019-06-26 07:00:00 14.8 4 Noroeste 6 Noroeste 0 -- -- 94
2019-06-26 06:00:00 15.7 2 Este 9 Norte 0 -- -- 93
2019-06-26 05:00:00 16.1 0 Calma 7 Este 0 -- -- 93
2019-06-26 04:00:00 16.7 8 Nordeste 15 Norte 0 -- -- 91
2019-06-26 03:00:00 16.7 8 Norte 16 Noroeste 0 -- -- 91
2019-06-26 02:00:00 16.6 0 Calma 5 Sudeste 0 -- -- 89
2019-06-26 01:00:00 16.5 0 Calma 6 Este 0 -- -- 90
2019-06-26 00:00:00 16.3 3 Este 5 Este 0 -- -- 90
2019-06-25 23:00:00 16.5 4 Este 17 Nordeste 0 -- -- 88
2019-06-25 22:00:00 17.7 9 Norte 17 Norte 0 -- -- 83
2019-06-25 21:00:00 19.5 6 Oeste 21 Norte 0 -- -- 78
2019-06-25 20:00:00 19.4 9 Noroeste 20 Norte 0 -- -- 79
2019-06-25 19:00:00 21.1 10 Noroeste 24 Noroeste 0 -- -- 76
2019-06-25 18:00:00 26 9 Noroeste 19 Noroeste 0 -- -- 55
2019-06-25 17:00:00 26.8 9 Oeste 22 Sudoeste 0 -- -- 47
2019-06-25 16:00:00 26.2 4 Sur 24 Sudeste 0 -- -- 49
2019-06-25 15:00:00 26.9 9 Sudeste 23 Sudeste 0 -- -- 44
2019-06-25 14:00:00 26.5 8 Sudoeste 26 Oeste 0 -- -- 47
2019-06-25 13:00:00 24.2 10 Este 18 Este 0 -- -- 54
2019-06-25 12:00:00 21.5 8 Este 16 Este 0 -- -- 65
2019-06-25 11:00:00 21.6 5 Este 15 Este 0 -- -- 62
2019-06-25 10:00:00 19 3 Sudoeste 8 Oeste 0 -- -- 71
2019-06-25 09:00:00 15.7 0 Calma 5 Sudoeste 0 -- -- 84
2019-06-25 08:00:00 12.7 0 Calma 3 Este 0 -- -- 95
2019-06-25 07:00:00 12.4 0 Calma 5 Oeste 0 -- -- 95
2019-06-25 06:00:00 12.7 0 Calma 5 Noroeste 0 -- -- 94
2019-06-25 05:00:00 13.3 2 Noroeste 3 Oeste 0 -- -- 94
2019-06-25 04:00:00 13.6 0 Calma 8 Oeste 0 -- -- 94
2019-06-25 03:00:00 14.2 2 Sudeste 6 Este 0 -- -- 90
2019-06-25 02:00:00 14.3 5 Este 12 Este 0 -- -- 90
2019-06-25 01:00:00 14.8 8 Este 10 Este 0 -- -- 87
2019-06-25 00:00:00 15.3 4 Nordeste 13 Este 0 -- -- 84
2019-06-24 23:00:00 15.9 0 Calma 6 Noroeste 0 -- -- 82
2019-06-24 22:00:00 16.5 4 Este 13 Este 0 -- -- 78
2019-06-24 21:00:00 17.1 5 Norte 26 Noroeste 0 -- -- 75
2019-06-24 20:00:00 17.9 12 Noroeste 31 Noroeste 0 -- -- 72
2019-06-24 19:00:00 20.1 10 Norte 29 Norte 0 -- -- 71
2019-06-24 18:00:00 26.9 3 Sudoeste 16 Oeste 0 -- -- 41
2019-06-24 17:00:00 27.1 5 Sudoeste 19 Sudoeste 0 -- -- 37
2019-06-24 16:00:00 26 8 Sur 19 Sudoeste 0 -- -- 38
2019-06-24 15:00:00 26.1 10 Sudoeste 21 Sudoeste 0 -- -- 37
2019-06-24 14:00:00 24.3 3 Sudeste 9 Sudeste 0 -- -- 55
2019-06-24 13:00:00 21.1 5 Sudeste 10 Este 0 -- -- 70
2019-06-24 12:00:00 18.4 4 Sudoeste 9 Oeste 0 -- -- 77
2019-06-24 11:00:00 15.1 4 Oeste 16 Este 0 -- -- 88
2019-06-24 10:00:00 13.5 3 Nordeste 17 Noroeste 0.4 -- -- 90
2019-06-24 09:00:00 12.6 3 Noroeste 6 Oeste 0 -- -- 90
2019-06-24 08:00:00 12 3 Sudoeste 8 Este 0 -- -- 92
2019-06-24 07:00:00 11.7 2 Noroeste 8 Noroeste 0 -- -- 91
2019-06-24 06:00:00 11.7 3 Oeste 10 Sudeste 0 -- -- 90
2019-06-24 05:00:00 11.7 7 Este 13 Este 0 -- -- 88
2019-06-24 04:00:00 11.9 4 Oeste 10 Este 0 -- -- 82
2019-06-24 03:00:00 11.8 4 Oeste 15 Sudoeste 0 -- -- 81
2019-06-24 02:00:00 11.8 5 Oeste 10 Oeste 0 -- -- 81
2019-06-24 01:00:00 13.5 3 Oeste 10 Oeste 0 -- -- 73
2019-06-24 00:00:00 15.4 6 Oeste 10 Oeste 0 -- -- 66
2019-06-23 23:00:00 18.1 3 Oeste 7 Este 0 -- -- 56
2019-06-23 22:00:00 20.3 3 Oeste 12 Oeste 0 -- -- 50
2019-06-23 21:00:00 22.3 9 Oeste 13 Oeste 0 -- -- 37
2019-06-23 20:00:00 23.8 7 Oeste 15 Oeste 0 -- -- 39
2019-06-23 19:00:00 24.8 7 Oeste 21 Oeste 0 -- -- 35
2019-06-23 18:00:00 25.8 9 Oeste 18 Noroeste 0 -- -- 33
2019-06-23 17:00:00 25.9 9 Sudoeste 18 Oeste 0 -- -- 30
2019-06-23 16:00:00 25.7 11 Sudoeste 26 Sudoeste 0 -- -- 27
2019-06-23 15:00:00 26.1 12 Sur 38 Sudoeste 0 -- -- 27
2019-06-23 14:00:00 26.3 18 Sudoeste 48 Sudoeste 0 -- -- 30
2019-06-23 13:00:00 25.8 14 Sur 28 Sur 0 -- -- 31
2019-06-23 12:00:00 24.3 12 Sudeste 27 Sur 0 -- -- 34
2019-06-23 11:00:00 22.3 6 Sudeste 15 Este 0 -- -- 46
2019-06-23 10:00:00 17.2 5 Sudeste 10 Este 0 -- -- 74
2019-06-23 09:00:00 11.4 2 Sudeste 8 Oeste 0 -- -- 94
2019-06-23 08:00:00 9 2 Oeste 6 Sudoeste 0 -- -- 96
2019-06-23 07:00:00 8.8 0 Calma 17 Oeste 0 -- -- 95
2019-06-23 06:00:00 9.3 5 Oeste 9 Oeste 0 -- -- 95
2019-06-23 05:00:00 9.7 6 Oeste 11 Oeste 0 -- -- 94
2019-06-23 04:00:00 10.3 6 Oeste 9 Oeste 0 -- -- 93
2019-06-23 03:00:00 11.2 4 Noroeste 10 Oeste 0 -- -- 90
2019-06-23 02:00:00 12.4 3 Oeste 10 Noroeste 0 -- -- 86
2019-06-23 01:00:00 13.1 4 Oeste 11 Oeste 0 -- -- 82
2019-06-23 00:00:00 14.8 8 Oeste 12 Noroeste 0 -- -- 76
2019-06-22 23:00:00 17.8 2 Noroeste 9 Noroeste 0 -- -- 63
2019-06-22 22:00:00 20.1 0 Calma 4 Este 0 -- -- 61
2019-06-22 21:00:00 22.9 0 Calma 7 Noroeste 0 -- -- 54
2019-06-22 20:00:00 25 5 Noroeste 17 Sudoeste 0 -- -- 36
2019-06-22 19:00:00 27.2 9 Oeste 21 Sur 0 -- -- 30
2019-06-22 18:00:00 28 10 Sur 25 Sudoeste 0 -- -- 28
2019-06-22 17:00:00 27.7 10 Sudeste 24 Sudoeste 0 -- -- 30
2019-06-22 16:00:00 27 9 Sur 24 Sudoeste 0 -- -- 30
2019-06-22 15:00:00 25.5 9 Oeste 22 Sudoeste 0 -- -- 37
2019-06-22 14:00:00 25.2 12 Sudoeste 30 Sudeste 0 -- -- 37
2019-06-22 13:00:00 23.2 5 Sudoeste 14 Sudoeste 0 -- -- 42
2019-06-22 12:00:00 19.1 3 Nordeste 8 Sudeste 0 -- -- 62
2019-06-22 11:00:00 14.8 5 Este 9 Sudeste 0 -- -- 78
2019-06-22 10:00:00 10.9 4 Este 8 Este 0 -- -- 97
2019-06-22 09:00:00 9 0 Calma 5 Noroeste 0 -- -- 98
2019-06-22 08:00:00 8.4 3 Noroeste 7 Noroeste 0 -- -- 98
2019-06-22 07:00:00 8.3 4 Oeste 8 Oeste 0 -- -- 97
2019-06-22 06:00:00 8.4 4 Noroeste 8 Noroeste 0 -- -- 97
2019-06-22 05:00:00 8.9 2 Nordeste 4 Oeste 0 -- -- 96
2019-06-22 04:00:00 8.6 3 Este 5 Noroeste 0 -- -- 96
2019-06-22 03:00:00 8.4 2 Este 5 Este 0 -- -- 95
2019-06-22 02:00:00 9.4 0 Calma 4 Nordeste 0 -- -- 93
2019-06-22 01:00:00 10.7 3 Oeste 7 Este 0 -- -- 93
2019-06-22 00:00:00 10.7 0 Calma 10 Noroeste 0 -- -- 91
2019-06-21 23:00:00 12.1 2 Norte 19 Norte 0 -- -- 86
2019-06-21 22:00:00 13.4 10 Norte 20 Norte 0 -- -- 82
2019-06-21 21:00:00 16.9 7 Norte 18 Norte 0 -- -- 69
2019-06-21 20:00:00 18.7 7 Nordeste 19 Este 0 -- -- 59
2019-06-21 19:00:00 16.9 13 Nordeste 23 Nordeste 0 -- -- 67
2019-06-21 18:00:00 17.3 10 Este 24 Este 0 -- -- 63
2019-06-21 17:00:00 17.7 13 Nordeste 29 Este 0 -- -- 64
2019-06-21 16:00:00 17.7 10 Este 23 Este 0 -- -- 62
2019-06-21 15:00:00 15.7 9 Norte 15 Nordeste 0 -- -- 71
2019-06-21 14:00:00 16 9 Sudeste 23 Este 0 -- -- 75
2019-06-21 13:00:00 14.2 5 Este 12 Norte 0 -- -- 84
2019-06-21 12:00:00 12.1 6 Noroeste 14 Noroeste 0 -- -- 91
2019-06-21 11:00:00 11.8 10 Noroeste 17 Norte 0 -- -- 92
2019-06-21 10:00:00 11.2 8 Norte 17 Noroeste 0 -- -- 93
2019-06-21 09:00:00 11.3 8 Noroeste 21 Norte 0 -- -- 94
2019-06-21 08:00:00 11.5 6 Norte 17 Nordeste 0 -- -- 93
2019-06-21 07:00:00 11.5 6 Norte 13 Norte 0 -- -- 93
2019-06-21 06:00:00 11.6 3 Noroeste 16 Norte 0 -- -- 94
2019-06-21 05:00:00 11.8 5 Norte 14 Noroeste 0 -- -- 93
2019-06-21 04:00:00 11.8 5 Noroeste 15 Noroeste 0.2 -- -- 95
2019-06-21 03:00:00 11.7 3 Norte 22 Este 0.8 -- -- 95
2019-06-21 02:00:00 11.9 2 Sur 14 Norte 1.4 -- -- 94
2019-06-21 01:00:00 12.1 9 Noroeste 14 Noroeste 0.6 -- -- 93
2019-06-21 00:00:00 12.1 6 Noroeste 8 Noroeste 1.4 -- -- 93
2019-06-20 23:00:00 12.5 2 Oeste 21 Norte 0.6 -- -- 90
2019-06-20 22:00:00 12.7 11 Noroeste 26 Nordeste 0 -- -- 88
2019-06-20 21:00:00 13.1 11 Nordeste 33 Norte 0 -- -- 87
2019-06-20 20:00:00 14 6 Norte 28 Noroeste 0 -- -- 83
2019-06-20 19:00:00 13.8 15 Noroeste 32 Noroeste 0 -- -- 84
2019-06-20 18:00:00 16.7 19 Noroeste 35 Norte 0 -- -- 74
2019-06-20 17:00:00 18.3 14 Norte 30 Norte 0 -- -- 67
2019-06-20 16:00:00 18.8 11 Noroeste 23 Este 0 -- -- 64
2019-06-20 15:00:00 17.9 13 Este 23 Este 0 -- -- 66
2019-06-20 14:00:00 18 12 Este 23 Este 0 -- -- 65
2019-06-20 13:00:00 15.7 7 Norte 19 Nordeste 0 -- -- 80
2019-06-20 12:00:00 14.8 9 Este 14 Este 0 -- -- 79
2019-06-20 11:00:00 14.3 8 Nordeste 17 Nordeste 0 -- -- 79
2019-06-20 10:00:00 14.2 8 Este 15 Este 0 -- -- 81
2019-06-20 09:00:00 14 3 Este 9 Este 0 -- -- 84
2019-06-20 08:00:00 13.4 3 Nordeste 8 Noroeste 0 -- -- 85
2019-06-20 07:00:00 12.8 4 Nordeste 10 Norte 0 -- -- 87
2019-06-20 06:00:00 13.1 5 Norte 12 Norte 0 -- -- 85
2019-06-20 05:00:00 13 8 Norte 13 Norte 0 -- -- 85
2019-06-20 04:00:00 13 6 Norte 12 Norte 0 -- -- 84
2019-06-20 03:00:00 12.8 0 Calma 11 Noroeste 0 -- -- 86
2019-06-20 02:00:00 13.4 6 Norte 15 Norte 0 -- -- 85
2019-06-20 01:00:00 13.4 6 Este 13 Este 0 -- -- 85
2019-06-20 00:00:00 13.6 5 Sur 7 Sudeste 0 -- -- 84
2019-06-19 23:00:00 13.9 2 Nordeste 18 Norte 0 -- -- 82
2019-06-19 22:00:00 14 9 Norte 23 Noroeste 0 -- -- 83
2019-06-19 21:00:00 14.4 12 Norte 32 Norte 0 -- -- 83
2019-06-19 20:00:00 16.5 15 Noroeste 35 Noroeste 0 -- -- 76
2019-06-19 19:00:00 18.6 15 Norte 27 Noroeste 0 -- -- 69
2019-06-19 18:00:00 23.3 8 Sudoeste 24 Sur 0 -- -- 45
2019-06-19 17:00:00 22.9 13 Sudoeste 24 Sudoeste 0 -- -- 48
2019-06-19 16:00:00 22.5 14 Oeste -- -- -- -- -- 48
2019-06-19 15:00:00 21.9 15 Sur -- -- -- -- -- 52
2019-06-19 14:00:00 20.9 13 Oeste 27 Oeste 0 -- -- 54
2019-06-19 13:00:00 21.4 11 Oeste 28 Sudoeste 0 -- -- 55
2019-06-19 12:00:00 19.9 10 Sudoeste 24 Sudoeste 0 -- -- 59
2019-06-19 11:00:00 19 10 Sudoeste 23 Sudoeste 0 -- -- 63
2019-06-19 10:00:00 -- -- -- -- -- -- -- -- --
2019-06-19 09:00:00 -- -- -- -- -- -- -- -- --
2019-06-19 08:00:00 -- -- -- -- -- -- -- -- --
2019-06-19 07:00:00 -- -- -- -- -- -- -- -- --
2019-06-19 06:00:00 15.7 -- -- -- -- -- -- -- --
2019-06-19 05:00:00 -- -- -- -- -- -- -- -- --
2019-06-19 04:00:00 14.1 4 Oeste 9 Nordeste 0 -- -- 81
2019-06-19 03:00:00 14.8 5 Este 8 Este 0 -- -- 78
2019-06-19 02:00:00 15.5 -- -- -- -- 0 -- -- 74
2019-06-19 01:00:00 16.8 0 Calma 17 Oeste 0 -- -- 68
2019-06-19 00:00:00 17.9 5 Oeste 19 Oeste 0 -- -- 61
2019-06-18 23:00:00 19.2 6 Oeste 23 Noroeste 0 -- -- 54
2019-06-18 22:00:00 20.7 10 Oeste 44 Sudoeste 0 -- -- 47
2019-06-18 21:00:00 23.5 16 Sudoeste 47 Sudoeste 0 -- -- 38
2019-06-18 20:00:00 24.9 21 Oeste 50 Sudoeste 0 -- -- 40
2019-06-18 19:00:00 26.8 20 Sudoeste 57 Sudoeste 0 -- -- 34
2019-06-18 18:00:00 27.9 21 Sudoeste 53 Sudoeste 0 -- -- 26
2019-06-18 17:00:00 27.8 22 Sudoeste 57 Sudoeste 0 -- -- 22
2019-06-18 16:00:00 27.7 24 Sudoeste 53 Sudoeste 0 -- -- 18
2019-06-18 15:00:00 27.5 22 Sudoeste 48 Sudoeste 0 -- -- 18
2019-06-18 14:00:00 26.9 18 Sudoeste 55 Oeste 0 -- -- 22
2019-06-18 13:00:00 25.7 19 Sudoeste 40 Sudoeste 0 -- -- 26
2019-06-18 12:00:00 24.8 17 Sudoeste 39 Sudoeste 0 -- -- 29
2019-06-18 11:00:00 23.2 18 Sudoeste 35 Oeste 0 -- -- 33
2019-06-18 10:00:00 18 5 Este 9 Este 0 -- -- 51
2019-06-18 09:00:00 12.3 0 Calma 8 Noroeste 0 -- -- 67
2019-06-18 08:00:00 7.6 4 Oeste 6 Oeste 0 -- -- 86
2019-06-18 07:00:00 6.8 4 Oeste 7 Oeste 0 -- -- 85
2019-06-18 06:00:00 8.2 5 Oeste 10 Oeste 0 -- -- 81
2019-06-18 05:00:00 9.4 4 Oeste 9 Noroeste 0 -- -- 76
2019-06-18 04:00:00 12.3 0 Calma 6 Este -- -- -- 63
2019-06-18 03:00:00 15.5 3 Este 6 Noroeste 0 -- -- 51
2019-06-18 02:00:00 18.5 7 Oeste 13 Oeste 0 -- -- 40
2019-06-18 01:00:00 17.2 7 Este 12 Este 0 -- -- 54
2019-06-18 00:00:00 18.1 7 Noroeste 15 Norte 0 -- -- 52
2019-06-17 23:00:00 19.5 12 Noroeste 19 Noroeste 0 -- -- 46
2019-06-17 22:00:00 19.9 2 Norte 11 Oeste 0 -- -- 55
2019-06-17 21:00:00 21.9 3 Noroeste 9 Noroeste 0 -- -- 46
2019-06-17 20:00:00 25.3 4 Oeste 13 Oeste 0 -- -- 37
2019-06-17 19:00:00 26.7 6 Sudoeste 19 Sur 0 -- -- 27
2019-06-17 18:00:00 27.4 11 Sudoeste 24 Sudoeste 0 -- -- 26
2019-06-17 17:00:00 28.1 12 Sudoeste 31 Sudoeste 0 -- -- 24
2019-06-17 16:00:00 28.5 13 Sur 37 Sudoeste 0 -- -- 25
2019-06-17 15:00:00 27.7 14 Sur 27 Sudoeste 0 -- -- 26
2019-06-17 14:00:00 27 13 Sur 34 Sudeste 0 -- -- 28
2019-06-17 13:00:00 25.9 15 Sudoeste 31 Sudoeste 0 -- -- 31
2019-06-17 12:00:00 21.5 5 Sudeste 16 Este 0 -- -- 60
2019-06-17 11:00:00 17.2 10 Este 15 Este 0 -- -- 74
2019-06-17 10:00:00 12.7 4 Este 8 Sudeste 0 -- -- 96
2019-06-17 09:00:00 9.4 2 Este 5 Sudeste 0 -- -- 98
2019-06-17 08:00:00 7.7 5 Noroeste 8 Noroeste 0 -- -- 98
2019-06-17 07:00:00 7.5 7 Noroeste 11 Noroeste 0 -- -- 98
2019-06-17 06:00:00 8.2 6 Noroeste 10 Noroeste 0 -- -- 96
2019-06-17 05:00:00 8.7 8 Noroeste 12 Noroeste 0 -- -- 96
2019-06-17 04:00:00 9.5 4 Oeste 6 Oeste 0 -- -- 94
2019-06-17 03:00:00 11 3 Oeste 6 Oeste 0 -- -- 94
2019-06-17 02:00:00 11.3 2 Norte 5 Oeste 0 -- -- 93
2019-06-17 01:00:00 12.3 0 Calma 4 Este 0 -- -- 92
2019-06-17 00:00:00 13.7 3 Nordeste 4 Este 0 -- -- 89
2019-06-16 23:00:00 15.1 3 Este 14 Norte 0 -- -- 85
2019-06-16 22:00:00 16.2 5 Norte 20 Noroeste 0 -- -- 80
2019-06-16 21:00:00 18 5 Norte 26 Noroeste 0 -- -- 73
2019-06-16 20:00:00 20.7 14 Noroeste 28 Noroeste 0 -- -- 64
2019-06-16 19:00:00 23.7 15 Noroeste 26 Noroeste 0 -- -- 56
2019-06-16 18:00:00 28.2 6 Sudeste 27 Este 0 -- -- 22
2019-06-16 17:00:00 27.5 5 Sur 26 Sudeste 0 -- -- 26
2019-06-16 16:00:00 26.4 7 Sur 21 Este 0 -- -- 27
2019-06-16 15:00:00 25.6 10 Sudoeste 25 Oeste 0 -- -- 31
2019-06-16 14:00:00 23.6 7 Nordeste 16 Este 0 -- -- 37
2019-06-16 13:00:00 22 5 Este 12 Nordeste 0 -- -- 44
2019-06-16 12:00:00 18.9 6 Sudeste 12 Este 0 -- -- 54
2019-06-16 11:00:00 15.4 4 Sudeste 10 Este 0 -- -- 62
2019-06-16 10:00:00 11.6 3 Este 7 Este 0 -- -- 72
2019-06-16 09:00:00 6.7 2 Oeste 5 Oeste 0 -- -- 91
2019-06-16 08:00:00 3.3 2 Oeste 4 Sudoeste 0 -- -- 96
2019-06-16 07:00:00 1.8 0 Calma 4 Oeste 0 -- -- 95
2019-06-16 06:00:00 2.3 2 Oeste 9 Oeste 0 -- -- 95
2019-06-16 05:00:00 3.3 4 Oeste 7 Oeste 0 -- -- 95
2019-06-16 04:00:00 4 4 Oeste 7 Oeste 0 -- -- 94
2019-06-16 03:00:00 5 3 Oeste 5 Oeste 0 -- -- 91
2019-06-16 02:00:00 6.5 0 Calma 5 Este 0 -- -- 88
2019-06-16 01:00:00 8.6 4 Sudeste 8 Norte 0 -- -- 82
2019-06-16 00:00:00 10 5 Norte 11 Norte 0 -- -- 79
2019-06-15 23:00:00 11 5 Norte 13 Nordeste 0 -- -- 76
2019-06-15 22:00:00 11.3 4 Nordeste 22 Norte 0 -- -- 76
2019-06-15 21:00:00 12.5 16 Norte 32 Norte 0 -- -- 72
2019-06-15 20:00:00 14.7 17 Noroeste 34 Noroeste 0 -- -- 67
2019-06-15 19:00:00 17.1 19 Noroeste 33 Noroeste 0 -- -- 60
2019-06-15 18:00:00 19.8 16 Noroeste 29 Noroeste 0 -- -- 55
2019-06-15 17:00:00 22 6 Sudeste 16 Este 0 -- -- 37
2019-06-15 16:00:00 20.3 9 Sur 17 Sur 0 -- -- 37
2019-06-15 15:00:00 20.1 8 Oeste 18 Oeste 0 -- -- 38
2019-06-15 14:00:00 18.8 5 Norte 27 Sudoeste 0 -- -- 44
2019-06-15 13:00:00 17.4 5 Este 17 Sur 0 -- -- 48
2019-06-15 12:00:00 17 6 Sur 17 Sudeste 0 -- -- 53
2019-06-15 11:00:00 14.7 7 Este 13 Este 0 -- -- 62
2019-06-15 10:00:00 12 3 Noroeste 9 Sudoeste 0 -- -- 72
2019-06-15 09:00:00 10.3 3 Oeste 6 Sudoeste 0 -- -- 87
2019-06-15 08:00:00 8.4 4 Noroeste 6 Noroeste 0 -- -- 96
2019-06-15 07:00:00 7.9 0 Calma 5 Este 0 -- -- 94
2019-06-15 06:00:00 7.9 4 Este 8 Este 0 -- -- 95
2019-06-15 05:00:00 7.5 3 Sudeste 5 Oeste 0 -- -- 94
2019-06-15 04:00:00 7.4 4 Este 5 Nordeste 0 -- -- 94
2019-06-15 03:00:00 7.4 0 Calma 6 Nordeste 0 -- -- 92
2019-06-15 02:00:00 7.8 3 Sudoeste 11 Este 0 -- -- 90
2019-06-15 01:00:00 8.9 7 Nordeste 10 Este 0 -- -- 88
2019-06-15 00:00:00 9.4 2 Este 9 Nordeste 0 -- -- 86
2019-06-14 23:00:00 10 4 Este 9 Sur 0 -- -- 82
2019-06-14 22:00:00 10.9 4 Este 24 Noroeste 0 -- -- 78
2019-06-14 21:00:00 13 10 Norte 30 Norte 0 -- -- 74
2019-06-14 20:00:00 12.6 13 Norte 31 Norte 0 -- -- 77
2019-06-14 19:00:00 13.3 16 Norte 32 Noroeste 0 -- -- 75
2019-06-14 18:00:00 15 19 Norte 36 Noroeste 0 -- -- 70
2019-06-14 17:00:00 16.4 22 Norte 34 Noroeste 0 -- -- 66
2019-06-14 16:00:00 18.8 16 Noroeste 34 Oeste 0 -- -- 61
2019-06-14 15:00:00 18.9 17 Noroeste 35 Noroeste 0 -- -- 59
2019-06-14 14:00:00 18.9 17 Noroeste 27 Noroeste 0 -- -- 61
2019-06-14 13:00:00 18.7 5 Sudeste 18 Este 0 -- -- 58
2019-06-14 12:00:00 16 6 Sudeste 12 Sudeste 0 -- -- 65
2019-06-14 11:00:00 12.9 3 Sudoeste 12 Sudeste 0 -- -- 76
2019-06-14 10:00:00 10.8 4 Sudeste 9 Este 0 -- -- 85
2019-06-14 09:00:00 9.6 2 Sudoeste 9 Este 0 -- -- 90
2019-06-14 08:00:00 8.6 5 Oeste 9 Oeste 0 -- -- 92
2019-06-14 07:00:00 7.9 0 Calma 9 Oeste 0 -- -- 92
2019-06-14 06:00:00 7.6 0 Calma 5 Oeste 0 -- -- 92
2019-06-14 05:00:00 7.5 3 Oeste 10 Norte 0 -- -- 91
2019-06-14 04:00:00 6.6 3 Este 8 Oeste 0 -- -- 92
2019-06-14 03:00:00 7.9 3 Nordeste 12 Noroeste 0 -- -- 88
2019-06-14 02:00:00 9 7 Norte 12 Noroeste 0 -- -- 86
2019-06-14 01:00:00 9.5 2 Oeste 8 Norte 0 -- -- 84
2019-06-14 00:00:00 9.6 6 Este 17 Nordeste 0 -- -- 85
2019-06-13 23:00:00 9.4 12 Norte 23 Norte 0 -- -- 87
2019-06-13 22:00:00 9.7 11 Norte 28 Noroeste 0 -- -- 84
2019-06-13 21:00:00 11.2 13 Norte 32 Noroeste 0 -- -- 77
2019-06-13 20:00:00 13 19 Norte 36 Norte 0 -- -- 71
2019-06-13 19:00:00 13.8 17 Norte 37 Norte 0 -- -- 71
2019-06-13 18:00:00 17.2 14 Norte 36 Noroeste 0 -- -- 62
2019-06-13 17:00:00 22.3 13 Oeste 31 Sudoeste 0 -- -- 46
2019-06-13 16:00:00 23.8 9 Sudoeste 32 Sudoeste 0 -- -- 24
2019-06-13 15:00:00 23 12 Sudoeste 35 Sudeste 0 -- -- 24
2019-06-13 14:00:00 20.9 15 Sudeste 30 Sudeste 0 -- -- 29
2019-06-13 13:00:00 17.7 6 Noroeste 14 Sudeste 0 -- -- 53
2019-06-13 12:00:00 14.8 5 Sur 11 Nordeste 0 -- -- 64
2019-06-13 11:00:00 12.6 5 Sudeste 14 Sudeste 0 -- -- 72
2019-06-13 10:00:00 9.8 7 Sudeste 13 Sudeste 0 -- -- 78
2019-06-13 09:00:00 8.8 7 Sudeste 17 Este 0 -- -- 81
2019-06-13 08:00:00 8.9 8 Este 13 Este 0 -- -- 80
2019-06-13 07:00:00 8.1 3 Nordeste 5 Nordeste 0 -- -- 86
2019-06-13 06:00:00 8.3 2 Sudeste 3 Sudeste 0 -- -- 86
2019-06-13 05:00:00 8.3 3 Este 4 Este 0 -- -- 86
2019-06-13 04:00:00 8.3 2 Este 7 Norte 0 -- -- 85
2019-06-13 03:00:00 8.4 2 Sudeste 9 Norte 0 -- -- 85
2019-06-13 02:00:00 8.1 4 Norte 12 Noroeste 0 -- -- 82
2019-06-13 01:00:00 8.2 6 Norte 18 Norte 0 -- -- 82
2019-06-13 00:00:00 8 8 Norte 14 Norte 0 -- -- 83
2019-06-12 23:00:00 9 3 Norte 14 Nordeste 0 -- -- 81
2019-06-12 22:00:00 9.2 4 Oeste 23 Norte 0 -- -- 80
2019-06-12 21:00:00 11.1 12 Norte 29 Noroeste 0 -- -- 73
2019-06-12 20:00:00 13.5 13 Noroeste 27 Noroeste 0 -- -- 66
2019-06-12 19:00:00 15.4 15 Noroeste 32 Noroeste 0 -- -- 57
2019-06-12 18:00:00 16.4 14 Noroeste 28 Norte 0 -- -- 55
2019-06-12 17:00:00 15.7 12 Norte 23 Norte 0 -- -- 53
2019-06-12 16:00:00 18.1 8 Sur 20 Este 0 -- -- 34
2019-06-12 15:00:00 16.5 6 Sudoeste 21 Este 0 -- -- 34
2019-06-12 14:00:00 16 9 Este 17 Este 0 -- -- 42
2019-06-12 13:00:00 15.6 8 Este 17 Sudeste 0 -- -- 38
2019-06-12 12:00:00 13.5 7 Sudeste 12 Sudeste 0 -- -- 48
2019-06-12 11:00:00 9.6 5 Este 13 Sudeste 0 -- -- 76
2019-06-12 10:00:00 4.6 3 Sudeste 6 Sudeste 0 -- -- 97
2019-06-12 09:00:00 2.1 4 Sudoeste 6 Sudoeste 0 -- -- 97
2019-06-12 08:00:00 0.8 3 Sudoeste 5 Sudoeste 0 -- -- 97
2019-06-12 07:00:00 -0.1 2 Sudeste 6 Este 0 -- -- 97
2019-06-12 06:00:00 -0.5 3 Oeste 9 Oeste 0 -- -- 96
2019-06-12 05:00:00 0 6 Oeste 10 Oeste 0 -- -- 96
2019-06-12 04:00:00 1 0 Calma 9 Oeste 0 -- -- 95
2019-06-12 03:00:00 1.7 6 Oeste 9 Oeste 0 -- -- 95
2019-06-12 02:00:00 2.5 2 Norte 8 Oeste 0 -- -- 93
2019-06-12 01:00:00 3.5 0 Calma 6 Sudoeste 0 -- -- 91
2019-06-12 00:00:00 5.1 2 Sudoeste 6 Norte 0 -- -- 88
2019-06-11 23:00:00 7.1 2 Norte 14 Noroeste 0 -- -- 82
2019-06-11 22:00:00 8.7 7 Norte 15 Oeste 0 -- -- 74
2019-06-11 21:00:00 10.4 5 Noroeste 29 Norte 0 -- -- 68
2019-06-11 20:00:00 11.9 14 Norte 33 Noroeste 0 -- -- 61
2019-06-11 19:00:00 12.6 17 Norte 36 Norte 0 -- -- 59
2019-06-11 18:00:00 12.8 18 Noroeste 36 Noroeste 0 -- -- 59
2019-06-11 17:00:00 12.9 15 Noroeste 42 Noroeste 0 -- -- 61
2019-06-11 16:00:00 12.2 15 Norte 38 Noroeste 0 -- -- 63
2019-06-11 15:00:00 11.1 10 Norte 36 Oeste 0 -- -- 63
2019-06-11 14:00:00 11.9 14 Noroeste 32 Norte 0 -- -- 60
2019-06-11 13:00:00 11.3 12 Noroeste 36 Oeste 0 -- -- 63
2019-06-11 12:00:00 10.5 21 Noroeste 39 Noroeste 0 -- -- 64
2019-06-11 11:00:00 10.6 13 Noroeste 28 Noroeste 0 -- -- 70
2019-06-11 10:00:00 8.8 12 Norte 29 Noroeste 0 -- -- 74
2019-06-11 09:00:00 8 9 Norte 17 Norte 0 -- -- 79
2019-06-11 08:00:00 6.5 4 Norte 15 Norte 0.2 -- -- 87
2019-06-11 07:00:00 5.8 3 Oeste 8 Noroeste 0 -- -- 94
2019-06-11 06:00:00 5.3 4 Noroeste 9 Noroeste 0 -- -- 96
2019-06-11 05:00:00 5.6 3 Este 10 Nordeste 0 -- -- 95
2019-06-11 04:00:00 6 4 Este 9 Nordeste 0 -- -- 93
2019-06-11 03:00:00 6.8 4 Nordeste 14 Norte 0 -- -- 92
2019-06-11 02:00:00 6.7 7 Este 11 Este 0 -- -- 95
2019-06-11 01:00:00 6.9 5 Este 9 Sudeste 1 -- -- 95
2019-06-11 00:00:00 6.9 6 Este 13 Sudeste 1.4 -- -- 93
2019-06-10 23:00:00 7.2 5 Este 17 Este 0.2 -- -- 89
2019-06-10 22:00:00 7.8 5 Este 23 Norte 0 -- -- 87
2019-06-10 21:00:00 8.5 8 Nordeste 18 Este 0.2 -- -- 84
2019-06-10 20:00:00 9 4 Sur 22 Noroeste 0 -- -- 85
2019-06-10 19:00:00 9.4 10 Noroeste 23 Norte 0 -- -- 85
2019-06-10 18:00:00 11.2 13 Norte 27 Norte 0 -- -- 74
2019-06-10 17:00:00 12.5 13 Norte 27 Nordeste 0 -- -- 68
2019-06-10 16:00:00 13.1 9 Norte 17 Norte 0 -- -- 65
2019-06-10 15:00:00 14.6 9 Este 18 Este 0 -- -- 58
2019-06-10 14:00:00 13.9 8 Sudeste 19 Este 0 -- -- 60
2019-06-10 13:00:00 11.6 6 Sudeste 20 Sudeste 0 -- -- 70
2019-06-10 12:00:00 11.1 9 Sudeste 18 Sudeste 0 -- -- 73
2019-06-10 11:00:00 10.6 13 Este 21 Este 0 -- -- 75
2019-06-10 10:00:00 10.1 6 Este 14 Nordeste 0 -- -- 74
2019-06-10 09:00:00 8.9 5 Noroeste 13 Nordeste 0 -- -- 83
2019-06-10 08:00:00 7.9 6 Noroeste 10 Noroeste 0 -- -- 89
2019-06-10 07:00:00 7.7 4 Noroeste 7 Norte 0 -- -- 91
2019-06-10 06:00:00 7.5 3 Nordeste 9 Norte 0 -- -- 93
2019-06-10 05:00:00 7.8 2 Oeste 9 Norte 0 -- -- 92
2019-06-10 04:00:00 7.8 4 Norte 7 Noroeste 0 -- -- 92
2019-06-10 03:00:00 8.4 6 Sudeste 15 Este 0 -- -- 92
2019-06-10 02:00:00 8.5 10 Nordeste 20 Nordeste 0 -- -- 89
2019-06-10 01:00:00 9 7 Este 31 Noroeste 0 -- -- 91
2019-06-10 00:00:00 9 4 Sudoeste 12 Oeste 0 -- -- 90
2019-06-09 23:00:00 9.2 4 Oeste 12 Noroeste 0.2 -- -- 90
2019-06-09 22:00:00 9.4 6 Este 18 Norte 0.6 -- -- 87
2019-06-09 21:00:00 9.8 10 Norte 31 Noroeste 0.2 -- -- 86
2019-06-09 20:00:00 10.7 17 Noroeste 37 Noroeste 0 -- -- 80
2019-06-09 19:00:00 11.7 14 Noroeste 28 Noroeste 0 -- -- 81
2019-06-09 18:00:00 12 14 Norte 35 Noroeste 0 -- -- 81
2019-06-09 17:00:00 12.8 14 Norte 32 Noroeste 0 -- -- 80
2019-06-09 16:00:00 13.1 17 Noroeste 31 Noroeste 0 -- -- 76
2019-06-09 15:00:00 16.1 15 Noroeste 31 Noroeste 0 -- -- 66
2019-06-09 14:00:00 15.6 11 Noroeste 23 Oeste 0 -- -- 66
2019-06-09 13:00:00 14.4 4 Nordeste 23 Norte 0 -- -- 69
2019-06-09 12:00:00 12.4 5 Norte 13 Noroeste 0 -- -- 77
2019-06-09 11:00:00 11.5 8 Noroeste 14 Noroeste 0 -- -- 82
2019-06-09 10:00:00 11.3 0 Calma 5 Este 0 -- -- 81
2019-06-09 09:00:00 10.7 3 Este 6 Sudeste 0 -- -- 83
2019-06-09 08:00:00 10.3 3 Este 5 Este 0 -- -- 85
2019-06-09 07:00:00 10 2 Noroeste 5 Sudeste 0 -- -- 86
2019-06-09 06:00:00 10.1 2 Sur 4 Sur 0 -- -- 86
2019-06-09 05:00:00 10 2 Noroeste 8 Noroeste 0 -- -- 89
2019-06-09 04:00:00 9.8 5 Noroeste 8 Noroeste 0 -- -- 90
2019-06-09 03:00:00 9.8 3 Noroeste 15 Norte 0 -- -- 89
2019-06-09 02:00:00 9.8 5 Norte 15 Norte 0 -- -- 88
2019-06-09 01:00:00 9.7 7 Norte 19 Norte 0 -- -- 89
2019-06-09 00:00:00 10 12 Norte 24 Norte 0 -- -- 86
2019-06-08 23:00:00 10.2 11 Noroeste 27 Noroeste 0 -- -- 86
2019-06-08 22:00:00 10.4 13 Norte 31 Norte 0 -- -- 87
2019-06-08 21:00:00 11.3 13 Norte 35 Norte 0 -- -- 84
2019-06-08 20:00:00 12.4 19 Noroeste 34 Noroeste 0 -- -- 80
2019-06-08 19:00:00 15.3 17 Norte 30 Norte 0 -- -- 70
2019-06-08 18:00:00 18.4 12 Norte 36 Noroeste 0 -- -- 61
2019-06-08 17:00:00 20.5 15 Norte 26 Este 0 -- -- 50
2019-06-08 16:00:00 21 6 Sur 21 Sudeste 0 -- -- 36
2019-06-08 15:00:00 20 9 Este 21 Este 0 -- -- 42
2019-06-08 14:00:00 19.2 9 Este 21 Este 0 -- -- 44
2019-06-08 13:00:00 16.6 5 Sur 17 Este 0 -- -- 52
2019-06-08 12:00:00 14.8 8 Sudeste 18 Sudeste 0 -- -- 59
2019-06-08 11:00:00 12.6 8 Este 15 Este 0 -- -- 67
2019-06-08 10:00:00 9.7 6 Sudeste 9 Este 0 -- -- 80
2019-06-08 09:00:00 5.4 2 Sudeste 5 Este 0 -- -- 97
2019-06-08 08:00:00 3.3 0 Calma 4 Este 0 -- -- 97
2019-06-08 07:00:00 2.9 0 Calma 4 Este 0 -- -- 96
2019-06-08 06:00:00 3 0 Calma 3 Este 0 -- -- 96
2019-06-08 05:00:00 3.2 0 Calma 3 Sudoeste 0 -- -- 96
2019-06-08 04:00:00 3.3 2 Sudoeste 4 Sudoeste 0 -- -- 96
2019-06-08 03:00:00 3 3 Oeste 6 Oeste 0 -- -- 95
2019-06-08 02:00:00 3.5 3 Oeste 7 Noroeste 0 -- -- 94
2019-06-08 01:00:00 4.4 0 Calma 4 Oeste 0 -- -- 91
2019-06-08 00:00:00 5.7 0 Calma 8 Noroeste 0 -- -- 89
2019-06-07 23:00:00 7 0 Calma 9 Nordeste 0 -- -- 84
2019-06-07 22:00:00 8.8 4 Sudeste 18 Norte 0 -- -- 76
2019-06-07 21:00:00 11.1 9 Norte 24 Norte 0 -- -- 69
2019-06-07 20:00:00 12.5 14 Norte 26 Norte 0 -- -- 62
2019-06-07 19:00:00 14.2 13 Norte 25 Noroeste 0 -- -- 61
2019-06-07 18:00:00 13.9 14 Norte 27 Norte 0 -- -- 61
2019-06-07 17:00:00 13.8 12 Norte 29 Oeste 0 -- -- 57
2019-06-07 16:00:00 17 14 Oeste 43 Sudoeste 0 -- -- 39
2019-06-07 15:00:00 16.8 13 Sudoeste 33 Sudoeste 0 -- -- 42
2019-06-07 14:00:00 15.3 16 Sudoeste 36 Oeste 0 -- -- 46
2019-06-07 13:00:00 14.5 18 Sudoeste 37 Sudoeste 0 -- -- 45
2019-06-07 12:00:00 13.3 22 Sudoeste 39 Sudoeste 0 -- -- 53
2019-06-07 11:00:00 10.6 18 Oeste 34 Oeste 0 -- -- 60
2019-06-07 10:00:00 9.5 16 Sudoeste 35 Sudoeste 0 -- -- 66
2019-06-07 09:00:00 8.5 14 Sudoeste 42 Sudoeste 0 -- -- 72
2019-06-07 08:00:00 7.6 18 Oeste 54 Sudoeste 0 -- -- 77
2019-06-07 07:00:00 7.8 24 Oeste 50 Oeste 0 -- -- 74
2019-06-07 06:00:00 7.7 21 Sudoeste 44 Sudoeste 0 -- -- 78
2019-06-07 05:00:00 7.7 17 Sudoeste 41 Oeste 0 -- -- 80
2019-06-07 04:00:00 8 15 Sudoeste 50 Sur 0 -- -- 80
2019-06-07 03:00:00 8.3 18 Sudoeste 48 Sur 0 -- -- 80
2019-06-07 02:00:00 8.8 17 Sudoeste 39 Sudoeste 0 -- -- 82
2019-06-07 01:00:00 8.5 14 Sur 43 Oeste 0.8 -- -- 81
2019-06-07 00:00:00 8.7 11 Oeste 57 Oeste 2.6 -- -- 87
2019-06-06 23:00:00 12.8 18 Sudoeste 40 Sudoeste 0.4 -- -- 81
2019-06-06 22:00:00 12.2 14 Sudoeste 43 Sudoeste 1.2 -- -- 84
2019-06-06 21:00:00 12.9 19 Oeste 48 Sudoeste 0.8 -- -- 79
2019-06-06 20:00:00 19 15 Sudoeste 45 Sudoeste 0 -- -- 41
2019-06-06 19:00:00 20 20 Sudoeste 45 Sudoeste 0 -- -- 32
2019-06-06 18:00:00 19.9 15 Sur 44 Sudoeste 0 -- -- 30
2019-06-06 17:00:00 19.8 19 Sur 49 Sur 0 -- -- 34
2019-06-06 16:00:00 18.9 21 Sur 40 Sudeste 0 -- -- 36
2019-06-06 15:00:00 18.2 19 Sur 49 Sudoeste 0 -- -- 39
2019-06-06 14:00:00 17.1 17 Sur 36 Sudeste 0 -- -- 44
2019-06-06 13:00:00 15.5 15 Sudoeste 33 Sudoeste 0 -- -- 50
2019-06-06 12:00:00 13.8 13 Sudoeste 30 Sur 0 -- -- 56
2019-06-06 11:00:00 11.1 4 Oeste 13 Oeste 0 -- -- 78
2019-06-06 10:00:00 7.1 2 Sur 6 Oeste 0 -- -- 98
2019-06-06 09:00:00 5.4 2 Este 6 Este 0 -- -- 98
2019-06-06 08:00:00 4.7 3 Norte 6 Noroeste 0 -- -- 97
2019-06-06 07:00:00 4.7 4 Noroeste 6 Oeste 0 -- -- 97
2019-06-06 06:00:00 5.3 4 Noroeste 6 Noroeste 0 -- -- 96
2019-06-06 05:00:00 6 4 Sudoeste 8 Oeste 0 -- -- 96
2019-06-06 04:00:00 6.3 2 Sudeste 5 Noroeste 0 -- -- 95
2019-06-06 03:00:00 6.4 4 Noroeste 9 Oeste 0 -- -- 96
2019-06-06 02:00:00 6.2 2 Sur 6 Noroeste 0 -- -- 95
2019-06-06 01:00:00 6.3 0 Calma 4 Nordeste 0 -- -- 93
2019-06-06 00:00:00 6.7 0 Calma 10 Este 0 -- -- 92
2019-06-05 23:00:00 7.1 6 Este 10 Sudeste 1.6 -- -- 91
2019-06-05 22:00:00 7.6 5 Este 14 Norte 0 -- -- 81
2019-06-05 21:00:00 8.8 4 Este 21 Norte 0 -- -- 75
2019-06-05 20:00:00 10 10 Norte 28 Noroeste 0 -- -- 75
2019-06-05 19:00:00 9.8 14 Noroeste 27 Noroeste 0 -- -- 75
2019-06-05 18:00:00 10.8 15 Noroeste 27 Noroeste 1 -- -- 80
2019-06-05 17:00:00 10.7 16 Noroeste 35 Noroeste 0 -- -- 73
2019-06-05 16:00:00 11.3 14 Norte 30 Noroeste 0 -- -- 78
2019-06-05 15:00:00 9.9 14 Norte 30 Norte 0.6 -- -- 88
2019-06-05 14:00:00 10.9 9 Este 19 Noroeste 1.6 -- -- 84
2019-06-05 13:00:00 13 3 Sudeste 15 Nordeste 0 -- -- 64
2019-06-05 12:00:00 11.5 7 Norte 19 Noroeste 0 -- -- 77
2019-06-05 11:00:00 11.2 4 Noroeste 10 Noroeste 0 -- -- 79
2019-06-05 10:00:00 9.8 3 Sudeste 10 Sudeste 0 -- -- 86
2019-06-05 09:00:00 8 7 Este 12 Este 0 -- -- 95
2019-06-05 08:00:00 7.5 4 Este 7 Este 1 -- -- 95
2019-06-05 07:00:00 7.5 4 Sur 13 Este 1.8 -- -- 95
2019-06-05 06:00:00 7.4 8 Este 24 Este 1.6 -- -- 95
2019-06-05 05:00:00 7.7 7 Este 12 Este 2.6 -- -- 94
2019-06-05 04:00:00 7.7 3 Oeste 23 Noroeste 5.8 -- -- 92
2019-06-05 03:00:00 8.3 6 Este 10 Este 0 -- -- 94
2019-06-05 02:00:00 8.3 7 Este 15 Este 0.6 -- -- 94
2019-06-05 01:00:00 8.6 8 Este 14 Sudeste 0 -- -- 92
2019-06-05 00:00:00 8.9 4 Este 14 Nordeste 1.2 -- -- 91
2019-06-04 23:00:00 9.6 3 Norte 23 Nordeste 0.6 -- -- 85
2019-06-04 22:00:00 10.2 8 Norte 30 Norte 0 -- -- 82
2019-06-04 21:00:00 10.9 12 Norte 32 Norte 0 -- -- 81
2019-06-04 20:00:00 12.5 14 Noroeste 39 Norte 0 -- -- 76
2019-06-04 19:00:00 13.3 20 Noroeste 33 Noroeste 0 -- -- 75
2019-06-04 18:00:00 14.4 17 Norte 33 Norte 0 -- -- 73
2019-06-04 17:00:00 21.8 15 Sudoeste 35 Noroeste 0 -- -- 50
2019-06-04 16:00:00 23 7 Sur 26 Sudoeste 0 -- -- 39
2019-06-04 15:00:00 22.7 13 Sudoeste 26 Sudoeste 0 -- -- 42
2019-06-04 14:00:00 20.6 14 Oeste 28 Sur 0 -- -- 50
2019-06-04 13:00:00 19.2 13 Sudoeste 33 Sudoeste 0 -- -- 53
2019-06-04 12:00:00 18.9 14 Sudoeste 29 Sudoeste 0 -- -- 53
2019-06-04 11:00:00 16.6 10 Sur 27 Sudoeste 0 -- -- 62
2019-06-04 10:00:00 16.2 4 Sudoeste 18 Oeste 0 -- -- 66
2019-06-04 09:00:00 14.3 7 Oeste 16 Sudoeste 0 -- -- 79
2019-06-04 08:00:00 11.2 2 Este 10 Norte 0 -- -- 95
2019-06-04 07:00:00 8.2 4 Oeste 16 Sudoeste 0 -- -- 96
2019-06-04 06:00:00 8.1 3 Norte 9 Oeste 0 -- -- 95
2019-06-04 05:00:00 8.5 6 Oeste 11 Oeste 0 -- -- 95
2019-06-04 04:00:00 9.2 5 Noroeste 10 Oeste 0 -- -- 94
2019-06-04 03:00:00 10.1 7 Oeste 11 Noroeste 0 -- -- 93
2019-06-04 02:00:00 10.9 3 Oeste 8 Noroeste 0 -- -- 91
2019-06-04 01:00:00 12.4 0 Calma 4 Sudeste 0 -- -- 90
2019-06-04 00:00:00 13.9 4 Este 5 Nordeste 0 -- -- 85
2019-06-03 23:00:00 15.4 0 Calma 10 Norte 0 -- -- 80
2019-06-03 22:00:00 16.8 7 Norte 17 Norte 0 -- -- 75
2019-06-03 21:00:00 18.9 11 Noroeste 26 Norte 0 -- -- 67
2019-06-03 20:00:00 21.7 12 Norte 27 Norte 0 -- -- 62
2019-06-03 19:00:00 25.6 14 Oeste 32 Noroeste 0 -- -- 48
2019-06-03 18:00:00 29.8 12 Sudoeste 37 Oeste 0 -- -- 28
2019-06-03 17:00:00 29.2 13 Sur 33 Sur 0 -- -- 30
2019-06-03 16:00:00 28.7 17 Sudoeste 32 Sudoeste 0 -- -- 31
2019-06-03 15:00:00 28.2 11 Sudoeste 30 Oeste 0 -- -- 32
2019-06-03 14:00:00 27 6 Sudoeste 20 Sudoeste 0 -- -- 34
2019-06-03 13:00:00 25.1 5 Sudoeste 13 Sudoeste 0 -- -- 39
2019-06-03 12:00:00 22.4 6 Sudeste 11 Este 0 -- -- 46
2019-06-03 11:00:00 19.2 5 Sudeste 10 Sudeste 0 -- -- 54
2019-06-03 10:00:00 16.1 4 Este 8 Sudeste 0 -- -- 65
2019-06-03 09:00:00 11.3 3 Sudoeste 5 Oeste 0 -- -- 87
2019-06-03 08:00:00 9 2 Este 7 Sudoeste 0 -- -- 94
2019-06-03 07:00:00 7.5 6 Oeste 12 Oeste 0 -- -- 95
2019-06-03 06:00:00 7.5 3 Norte 8 Oeste 0 -- -- 94
2019-06-03 05:00:00 7.5 5 Oeste 8 Oeste 0 -- -- 91
2019-06-03 04:00:00 8.7 0 Calma 4 Oeste 0 -- -- 89
2019-06-03 03:00:00 9.6 0 Calma 6 Oeste 0 -- -- 87
2019-06-03 02:00:00 10.1 2 Oeste 6 Oeste 0 -- -- 86
2019-06-03 01:00:00 11.5 3 Oeste 7 Oeste 0 -- -- 81
2019-06-03 00:00:00 12.7 3 Norte 8 Noroeste 0 -- -- 76
2019-06-02 23:00:00 15.1 4 Noroeste 9 Sudoeste 0 -- -- 67
2019-06-02 22:00:00 17.7 5 Nordeste 14 Noroeste 0 -- -- 54
2019-06-02 21:00:00 20.1 5 Noroeste 19 Noroeste 0 -- -- 50
2019-06-02 20:00:00 22.8 10 Noroeste 27 Norte 0 -- -- 43
2019-06-02 19:00:00 24 12 Norte 32 Noroeste 0 -- -- 46
2019-06-02 18:00:00 28.8 13 Noroeste 39 Sudoeste 0 -- -- 32
2019-06-02 17:00:00 30.6 14 Sudoeste 34 Oeste 0 -- -- 17
2019-06-02 16:00:00 29.8 17 Oeste 46 Sudoeste 0 -- -- 23
2019-06-02 15:00:00 30.7 14 Sudoeste 37 Sudoeste 0 -- -- 24
2019-06-02 14:00:00 29.6 14 Sudoeste 30 Sudoeste 0 -- -- 26
2019-06-02 13:00:00 28.5 11 Sudoeste 25 Sur 0 -- -- 31
2019-06-02 12:00:00 26.2 5 Este 9 Este 0 -- -- 40
2019-06-02 11:00:00 23.7 3 Este 10 Este 0 -- -- 46
2019-06-02 10:00:00 19.1 2 Sudeste 5 Sudoeste 0 -- -- 64
2019-06-02 09:00:00 13.4 2 Oeste 8 Oeste 0 -- -- 82
2019-06-02 08:00:00 9.8 3 Oeste 8 Noroeste 0 -- -- 93
2019-06-02 07:00:00 8.8 0 Calma 8 Sudoeste 0 -- -- 95
2019-06-02 06:00:00 9.3 2 Noroeste 9 Oeste 0 -- -- 94
2019-06-02 05:00:00 9.7 4 Oeste 10 Oeste 0 -- -- 93
2019-06-02 04:00:00 10.5 6 Oeste 9 Noroeste 0 -- -- 92
2019-06-02 03:00:00 11.9 3 Oeste 6 Oeste 0 -- -- 89
2019-06-02 02:00:00 13.4 4 Nordeste 13 Oeste 0 -- -- 86
2019-06-02 01:00:00 14.6 7 Oeste 14 Oeste 0 -- -- 79
2019-06-02 00:00:00 16.7 3 Noroeste 6 Noroeste 0 -- -- 76
2019-06-01 23:00:00 19.8 4 Oeste 9 Noroeste 0 -- -- 66
2019-06-01 22:00:00 22.7 2 Norte 22 Norte 0 -- -- 54
2019-06-01 21:00:00 25.6 9 Norte 26 Noroeste 0 -- -- 45
2019-06-01 20:00:00 28 16 Noroeste 25 Noroeste 0 -- -- 43
2019-06-01 19:00:00 30 13 Norte 27 Noroeste 0 -- -- 39
2019-06-01 18:00:00 31.9 5 Oeste 24 Sudoeste 0 -- -- 20
2019-06-01 17:00:00 31.8 6 Este 20 Oeste 0 -- -- 21
2019-06-01 16:00:00 31.6 13 Oeste 23 Oeste 0 -- -- 23
2019-06-01 15:00:00 31.1 12 Oeste 31 Sudoeste 0 -- -- 23
2019-06-01 14:00:00 30.3 13 Oeste 26 Oeste 0 -- -- 22
2019-06-01 13:00:00 28.5 5 Oeste 12 Oeste 0 -- -- 33
2019-06-01 12:00:00 26.2 4 Sudoeste 10 Oeste 0 -- -- 38
2019-06-01 11:00:00 22.3 3 Sudeste 8 Sudeste 0 -- -- 45
2019-06-01 10:00:00 16.8 3 Oeste 5 Sudoeste 0 -- -- 61
2019-06-01 09:00:00 12 2 Sudeste 6 Este 0 -- -- 78
2019-06-01 08:00:00 7.5 2 Sudoeste 5 Sudoeste 0 -- -- 90
2019-06-01 07:00:00 5.4 5 Oeste 8 Oeste 0 -- -- 93
2019-06-01 06:00:00 6.3 4 Oeste 8 Oeste 0 -- -- 93
2019-06-01 05:00:00 7 4 Oeste 5 Noroeste 0 -- -- 89
2019-06-01 04:00:00 8 3 Oeste 10 Oeste 0 -- -- 86
2019-06-01 03:00:00 9.1 3 Oeste 10 Noroeste 0 -- -- 82
2019-06-01 02:00:00 10.3 3 Oeste 8 Oeste 0 -- -- 78
2019-06-01 01:00:00 11.8 3 Noroeste 7 Oeste 0 -- -- 72
2019-06-01 00:00:00 13.8 4 Oeste 7 Oeste 0 -- -- 65
2019-05-31 23:00:00 16.6 4 Oeste 8 Noroeste 0 -- -- 57
2019-05-31 22:00:00 22 5 Norte 14 Norte 0 -- -- 41
2019-05-31 21:00:00 25.3 7 Norte 20 Norte 0 -- -- 36
2019-05-31 20:00:00 27.2 13 Noroeste 24 Noroeste 0 -- -- 33
2019-05-31 19:00:00 28.4 12 Noroeste 22 Noroeste 0 -- -- 30
2019-05-31 18:00:00 29.3 8 Norte 23 Norte 0 -- -- 23
2019-05-31 17:00:00 30.2 5 Noroeste 20 Este 0 -- -- 21
2019-05-31 16:00:00 29.4 9 Este 21 Sudeste 0 -- -- 20
2019-05-31 15:00:00 28.7 10 Este 19 Nordeste 0 -- -- 21
2019-05-31 14:00:00 27.6 9 Sur 15 Sur 0 -- -- 23
2019-05-31 13:00:00 26.3 6 Sur 14 Sudeste 0 -- -- 28
2019-05-31 12:00:00 23.6 5 Este 11 Este 0 -- -- 44
2019-05-31 11:00:00 19.6 5 Sudeste 9 Sudeste 0 -- -- 54
2019-05-31 10:00:00 14.9 3 Este 6 Este 0 -- -- 67
2019-05-31 09:00:00 10.1 2 Este 5 Sudeste 0 -- -- 85
2019-05-31 08:00:00 5.5 3 Oeste 8 Oeste 0 -- -- 96
2019-05-31 07:00:00 4 6 Oeste 8 Oeste 0 -- -- 95
2019-05-31 06:00:00 4.7 4 Oeste 8 Oeste 0 -- -- 94
2019-05-31 05:00:00 5.8 3 Sudoeste 6 Noroeste 0 -- -- 93
2019-05-31 04:00:00 7 4 Noroeste 7 Oeste 0 -- -- 93
2019-05-31 03:00:00 8.1 2 Oeste 6 Sudoeste 0 -- -- 91
2019-05-31 02:00:00 9.5 3 Oeste 5 Oeste 0 -- -- 87
2019-05-31 01:00:00 11.3 3 Este 9 Noroeste 0 -- -- 84
2019-05-31 00:00:00 13.6 0 Calma 9 Este 0 -- -- 77
2019-05-30 23:00:00 15.9 5 Noroeste 12 Nordeste 0 -- -- 69
2019-05-30 22:00:00 18.8 7 Nordeste 17 Norte 0 -- -- 61
2019-05-30 21:00:00 22.2 9 Noroeste 21 Norte 0 -- -- 52
2019-05-30 20:00:00 24.1 11 Norte 26 Norte 0 -- -- 49
2019-05-30 19:00:00 25.1 14 Norte 26 Norte 0 -- -- 46
2019-05-30 18:00:00 26.5 10 Norte 23 Este 0 -- -- 37
2019-05-30 17:00:00 26.4 10 Norte 27 Este 0 -- -- 37
2019-05-30 16:00:00 26.5 15 Sudeste 35 Este 0 -- -- 35
2019-05-30 15:00:00 25.6 17 Este 29 Este 0 -- -- 33
2019-05-30 14:00:00 24.7 14 Este 26 Este 0 -- -- 35
2019-05-30 13:00:00 22.7 11 Sudeste 21 Sudeste 0 -- -- 42
2019-05-30 12:00:00 20 9 Sudeste 15 Este 0 -- -- 52
2019-05-30 11:00:00 16 7 Este 13 Este 0 -- -- 63
2019-05-30 10:00:00 10.9 8 Este 13 Este 0 -- -- 79
2019-05-30 09:00:00 7.3 3 Sudeste 6 Este 0 -- -- 93
2019-05-30 08:00:00 3.6 0 Calma 5 Noroeste 0 -- -- 97
2019-05-30 07:00:00 2.4 2 Oeste 5 Oeste 0 -- -- 96
2019-05-30 06:00:00 3 0 Calma 8 Oeste 0 -- -- 96
2019-05-30 05:00:00 3.6 5 Oeste 9 Noroeste 0 -- -- 95
2019-05-30 04:00:00 4.4 6 Oeste 11 Noroeste 0 -- -- 94
2019-05-30 03:00:00 5.2 0 Calma 7 Oeste 0 -- -- 93
2019-05-30 02:00:00 6.3 3 Oeste 6 Oeste 0 -- -- 91
2019-05-30 01:00:00 7.6 0 Calma 5 Oeste 0 -- -- 90
2019-05-30 00:00:00 9.3 4 Nordeste 8 Oeste 0 -- -- 86
2019-05-29 23:00:00 11.8 0 Calma 14 Este 0 -- -- 78
2019-05-29 22:00:00 14.2 10 Este 18 Nordeste 0 -- -- 70
2019-05-29 21:00:00 17 8 Norte 17 Nordeste 0 -- -- 60
2019-05-29 20:00:00 18.6 8 Nordeste 22 Oeste 0 -- -- 54
2019-05-29 19:00:00 18.8 13 Noroeste 28 Nordeste 0 -- -- 51
2019-05-29 18:00:00 19.1 14 Noroeste 30 Noroeste 0 -- -- 46
2019-05-29 17:00:00 19.9 6 Norte 22 Oeste 0 -- -- 51
2019-05-29 16:00:00 18.2 9 Norte 33 Oeste 0 -- -- 55
2019-05-29 15:00:00 17.9 10 Nordeste 27 Norte 0 -- -- 56
2019-05-29 14:00:00 16.8 9 Nordeste 26 Este 0 -- -- 56
2019-05-29 13:00:00 15.3 9 Norte 20 Norte 0 -- -- 62
2019-05-29 12:00:00 13.7 10 Este 29 Este 0 -- -- 63
2019-05-29 11:00:00 11.9 12 Este 25 Nordeste 0 -- -- 69
2019-05-29 10:00:00 10.9 10 Este 23 Este 0 -- -- 71
2019-05-29 09:00:00 9.9 15 Este 21 Este 0 -- -- 77
2019-05-29 08:00:00 6.3 0 Calma 4 Noroeste 0 -- -- 92
2019-05-29 07:00:00 5.6 0 Calma 6 Este 0 -- -- 92
2019-05-29 06:00:00 6 4 Nordeste 7 Este 0 -- -- 91
2019-05-29 05:00:00 5.3 0 Calma 6 Este 0 -- -- 90
2019-05-29 04:00:00 6 3 Sudeste 8 Sudoeste 0 -- -- 87
2019-05-29 03:00:00 7.1 5 Sudoeste 13 Oeste 0 -- -- 85
2019-05-29 02:00:00 7.8 3 Noroeste 17 Norte 0 -- -- 82
2019-05-29 01:00:00 8.9 7 Nordeste 14 Este 0 -- -- 80
2019-05-29 00:00:00 9 6 Este 19 Nordeste 0 -- -- 78
2019-05-28 23:00:00 9.2 5 Este 23 Este 0 -- -- 78
2019-05-28 22:00:00 9.7 7 Nordeste 27 Norte 0 -- -- 76
2019-05-28 21:00:00 10.8 4 Sur 26 Oeste 0 -- -- 71
2019-05-28 20:00:00 11.8 14 Norte 37 Norte 0 -- -- 65
2019-05-28 19:00:00 13 14 Norte 36 Noroeste 0 -- -- 61
2019-05-28 18:00:00 13.7 19 Noroeste 35 Noroeste 0 -- -- 57
2019-05-28 17:00:00 13.9 17 Norte 38 Noroeste 0 -- -- 58
2019-05-28 16:00:00 14.5 20 Norte 41 Norte 0 -- -- 55
2019-05-28 15:00:00 14.8 18 Norte 45 Norte 0 -- -- 58
2019-05-28 14:00:00 14.7 21 Norte 36 Noroeste 0 -- -- 53
2019-05-28 13:00:00 14.6 19 Noroeste 51 Norte 0 -- -- 52
2019-05-28 12:00:00 12.9 19 Noroeste 38 Noroeste 0 -- -- 59
2019-05-28 11:00:00 12.7 12 Norte 28 Nordeste 0 -- -- 60
2019-05-28 10:00:00 10.7 10 Nordeste 22 Norte 0 -- -- 67
2019-05-28 09:00:00 9.3 10 Norte 23 Norte 0 -- -- 71
2019-05-28 08:00:00 8.7 8 Norte 21 Norte 0 -- -- 73
2019-05-28 07:00:00 7.9 11 Norte 23 Norte 0 -- -- 76
2019-05-28 06:00:00 8 9 Nordeste 21 Norte 0 -- -- 80
2019-05-28 05:00:00 8.5 7 Norte 19 Norte 0 -- -- 83
2019-05-28 04:00:00 9 5 Nordeste 23 Nordeste 0 -- -- 77
2019-05-28 03:00:00 9.3 5 Nordeste 15 Norte 0 -- -- 79
2019-05-28 02:00:00 9.2 6 Nordeste 23 Nordeste 0 -- -- 79
2019-05-28 01:00:00 9.7 6 Este 19 Este 0 -- -- 77
2019-05-28 00:00:00 9.7 6 Nordeste 20 Noroeste 0 -- -- 79